Time;durP1;ratioP1;P1;durP2;ratioP2;P2;SDS_P1;SDS_P2;PMS_P1;PMS_P2;Temp;Humidity;BMP_temperature;BMP_pressure;BME280_temperature;BME280_humidity;BME280_pressure;Samples;Min_cycle;Max_cycle;Signal;HPM_P1;HPM_P2
2022/05/08 00:02:24;;;;;;;13.23;3.45;;;9.90;99.90;;;;;;5063864;28;20052;-76
2022/05/08 00:04:51;;;;;;;12.18;3.28;;;9.80;99.90;;;;;;5032316;28;20056;-75
2022/05/08 00:07:18;;;;;;;14.65;3.80;;;9.80;99.90;;;;;;5024849;28;20063;-75
2022/05/08 00:09:45;;;;;;;9.70;3.10;;;9.90;99.90;;;;;;5023735;28;20655;-76
2022/05/08 00:12:11;;;;;;;12.85;3.28;;;9.80;99.90;;;;;;5045286;28;20058;-75
2022/05/08 00:14:41;;;;;;;10.50;3.45;;;9.80;99.90;;;;;;5048361;28;20048;-75
2022/05/08 00:17:11;;;;;;;12.73;3.33;;;9.80;99.90;;;;;;5030362;28;20132;-75
2022/05/08 00:19:43;;;;;;;16.83;3.10;;;9.80;99.90;;;;;;5040420;28;20132;-74
2022/05/08 00:22:09;;;;;;;15.25;3.30;;;9.70;99.90;;;;;;5030481;28;20063;-74
2022/05/08 00:24:35;;;;;;;11.27;2.88;;;9.70;99.90;;;;;;5040639;28;20588;-75
2022/05/08 00:27:00;;;;;;;11.07;3.35;;;9.70;99.90;;;;;;5047239;28;20136;-75
2022/05/08 00:29:26;;;;;;;12.63;4.15;;;9.70;99.90;;;;;;5080794;28;20056;-75
2022/05/08 00:31:52;;;;;;;14.45;3.40;;;9.60;99.90;;;;;;5046629;28;20041;-75
2022/05/08 00:34:18;;;;;;;13.35;3.33;;;9.60;99.90;;;;;;5030815;28;20178;-76
2022/05/08 00:36:44;;;;;;;14.27;3.58;;;9.60;99.90;;;;;;5023646;28;20071;-75
2022/05/08 00:39:10;;;;;;;11.68;3.65;;;9.60;99.90;;;;;;5079818;28;20049;-75
2022/05/08 00:41:36;;;;;;;12.48;3.60;;;9.60;99.90;;;;;;5031284;28;20041;-75
2022/05/08 00:44:03;;;;;;;8.77;3.00;;;9.60;99.90;;;;;;5029493;28;20049;-74
2022/05/08 00:46:29;;;;;;;9.32;3.45;;;9.50;99.90;;;;;;5028804;28;20498;-75
2022/05/08 00:48:57;;;;;;;13.75;3.05;;;9.60;99.90;;;;;;5044317;28;20067;-77
2022/05/08 00:51:26;;;;;;;12.18;2.92;;;9.60;99.90;;;;;;5047600;28;20138;-75
2022/05/08 00:53:54;;;;;;;11.05;3.00;;;9.60;99.90;;;;;;5022890;28;20091;-75
2022/05/08 00:56:20;;;;;;;17.05;3.65;;;9.50;99.90;;;;;;5046012;28;20060;-75
2022/05/08 00:58:48;;;;;;;12.07;3.20;;;9.50;99.90;;;;;;5062861;28;20045;-74
2022/05/08 01:01:14;;;;;;;11.13;2.97;;;9.50;99.90;;;;;;5045369;28;20056;-74
2022/05/08 01:03:41;;;;;;;11.57;2.92;;;9.50;99.90;;;;;;5046379;28;20060;-75
2022/05/08 01:06:09;;;;;;;10.93;3.22;;;9.50;99.90;;;;;;5029424;28;20049;-75
2022/05/08 01:08:37;;;;;;;11.23;2.65;;;9.50;99.90;;;;;;5080261;28;20056;-75
2022/05/08 01:11:05;;;;;;;13.30;2.97;;;9.50;99.90;;;;;;5020389;28;20492;-75
2022/05/08 01:13:31;;;;;;;8.57;3.00;;;9.50;99.90;;;;;;5028321;28;20049;-75
2022/05/08 01:15:57;;;;;;;14.88;3.25;;;9.50;99.90;;;;;;5023689;28;20132;-75
2022/05/08 01:18:24;;;;;;;12.38;3.28;;;9.40;99.90;;;;;;5022803;28;20055;-74
2022/05/08 01:20:50;;;;;;;8.05;2.95;;;9.40;99.90;;;;;;5029299;28;20406;-75
2022/05/08 01:23:18;;;;;;;12.45;3.45;;;9.40;99.90;;;;;;5078030;28;20068;-74
2022/05/08 01:25:51;;;;;;;12.60;2.97;;;9.40;99.90;;;;;;5061032;28;20056;-75
2022/05/08 01:28:17;;;;;;;10.65;3.03;;;9.40;99.90;;;;;;5078841;28;20060;-74
2022/05/08 01:30:46;;;;;;;13.45;3.05;;;9.40;99.90;;;;;;5029244;28;20056;-76
2022/05/08 01:33:12;;;;;;;12.27;3.17;;;9.40;99.90;;;;;;5045498;28;20075;-75
2022/05/08 01:35:38;;;;;;;10.73;2.78;;;9.30;99.90;;;;;;5022898;28;20056;-73
2022/05/08 01:38:05;;;;;;;9.68;2.50;;;9.30;99.90;;;;;;5045368;28;20084;-75
2022/05/08 01:40:32;;;;;;;12.15;2.78;;;9.30;99.90;;;;;;5045308;28;20060;-75
2022/05/08 01:42:59;;;;;;;10.38;2.67;;;9.30;99.90;;;;;;5079900;28;20131;-75
2022/05/08 01:45:25;;;;;;;12.43;3.08;;;9.30;99.90;;;;;;5021825;28;20044;-75
2022/05/08 01:50:37;;;;;;;11.10;3.00;;;9.30;99.90;;;;;;5045406;28;20053;-76
2022/05/08 01:53:03;;;;;;;11.00;2.70;;;9.30;99.90;;;;;;5043815;28;20063;-77
2022/05/08 01:55:29;;;;;;;13.90;2.67;;;9.30;99.90;;;;;;5023377;28;20049;-75
2022/05/08 01:57:55;;;;;;;7.53;2.20;;;9.20;99.90;;;;;;5045946;28;20090;-75
2022/05/08 02:00:26;;;;;;;13.05;2.90;;;9.20;99.90;;;;;;5023115;28;20136;-74
2022/05/08 02:02:53;;;;;;;9.27;2.95;;;9.20;99.90;;;;;;5045885;28;20463;-75
2022/05/08 02:05:21;;;;;;;13.18;3.63;;;9.20;99.90;;;;;;5038584;28;20045;-75
2022/05/08 02:07:48;;;;;;;9.70;2.85;;;9.20;99.90;;;;;;5044559;28;20041;-75
2022/05/08 02:10:16;;;;;;;14.02;3.25;;;9.20;99.90;;;;;;5029128;28;20053;-75
2022/05/08 02:12:43;;;;;;;11.98;2.90;;;9.20;99.90;;;;;;5061796;28;20048;-75
2022/05/08 02:15:10;;;;;;;9.77;3.05;;;9.10;99.90;;;;;;5041053;28;20048;-75
2022/05/08 02:17:37;;;;;;;8.35;2.40;;;9.10;99.90;;;;;;5033994;28;20506;-75
2022/05/08 02:20:05;;;;;;;12.02;2.80;;;9.10;99.90;;;;;;5049619;28;20569;-76
2022/05/08 02:22:30;;;;;;;8.80;2.30;;;9.00;99.90;;;;;;5051456;28;20048;-75
2022/05/08 02:24:56;;;;;;;6.78;2.50;;;9.00;99.90;;;;;;5049892;28;20041;-75
2022/05/08 02:27:22;;;;;;;10.88;2.53;;;9.00;99.90;;;;;;5032977;28;20056;-75
2022/05/08 02:29:49;;;;;;;12.73;2.47;;;9.00;99.90;;;;;;5047532;28;20163;-75
2022/05/08 02:32:15;;;;;;;12.82;2.47;;;9.00;99.90;;;;;;5049553;28;20084;-75
2022/05/08 02:34:41;;;;;;;8.65;2.00;;;8.90;99.90;;;;;;5049520;28;20521;-73
2022/05/08 02:37:07;;;;;;;8.25;2.30;;;8.90;99.90;;;;;;5065589;28;20510;-76
2022/05/08 02:39:32;;;;;;;10.57;2.50;;;8.90;99.90;;;;;;5065048;28;20049;-75
2022/05/08 02:41:58;;;;;;;12.45;2.95;;;8.90;99.90;;;;;;5032429;28;20060;-72
2022/05/08 02:44:24;;;;;;;7.30;2.60;;;8.90;99.90;;;;;;5063906;28;20053;-74
2022/05/08 02:46:50;;;;;;;10.27;2.50;;;8.80;99.90;;;;;;5066502;28;20136;-76
2022/05/08 02:49:15;;;;;;;9.52;2.60;;;9.00;99.90;;;;;;5029389;28;20056;-76
2022/05/08 02:51:41;;;;;;;10.93;2.47;;;8.80;99.90;;;;;;5033679;28;20155;-75
2022/05/08 02:54:07;;;;;;;8.88;2.17;;;8.80;99.90;;;;;;5047536;28;20445;-77
2022/05/08 02:59:17;;;;;;;8.50;2.40;;;8.70;99.90;;;;;;5048477;28;20091;-76
2022/05/08 03:01:43;;;;;;;8.35;2.33;;;8.70;99.90;;;;;;5033006;28;20084;-75
2022/05/08 03:04:09;;;;;;;10.43;2.42;;;8.70;99.90;;;;;;5048273;28;20052;-77
2022/05/08 03:06:34;;;;;;;10.10;2.30;;;8.80;99.90;;;;;;5047501;28;20486;-72
2022/05/08 03:09:00;;;;;;;9.00;2.25;;;8.80;99.90;;;;;;5032505;28;20048;-74
2022/05/08 03:11:26;;;;;;;11.07;2.85;;;8.80;99.90;;;;;;5048537;28;20045;-74
2022/05/08 03:13:53;;;;;;;6.15;1.67;;;8.70;99.90;;;;;;5048049;28;20465;-76
2022/05/08 03:16:19;;;;;;;5.43;1.80;;;8.70;99.90;;;;;;5048689;28;20045;-73
2022/05/08 03:18:45;;;;;;;7.90;2.00;;;8.90;99.90;;;;;;5048200;28;20072;-75
2022/05/08 03:21:13;;;;;;;8.40;2.05;;;8.70;99.90;;;;;;5008600;28;20049;-75
2022/05/08 03:23:40;;;;;;;8.25;2.53;;;8.70;99.90;;;;;;5041180;28;20136;-75
2022/05/08 03:26:07;;;;;;;6.65;2.05;;;8.70;99.90;;;;;;5025467;28;20059;-75
2022/05/08 03:28:36;;;;;;;9.40;2.72;;;8.70;99.90;;;;;;5047209;28;20056;-76
2022/05/08 03:31:02;;;;;;;9.65;2.33;;;8.70;99.90;;;;;;5064519;28;20045;-75
2022/05/08 03:33:28;;;;;;;9.45;2.30;;;8.70;99.90;;;;;;5047536;28;20052;-75
2022/05/08 03:35:55;;;;;;;6.95;2.20;;;8.70;99.90;;;;;;5081868;28;20055;-76
2022/05/08 03:38:21;;;;;;;10.02;2.40;;;8.70;99.90;;;;;;5046409;28;20088;-75
2022/05/08 03:40:47;;;;;;;9.20;2.00;;;8.70;99.90;;;;;;5032302;28;20045;-74
2022/05/08 03:43:13;;;;;;;8.02;1.90;;;8.70;99.90;;;;;;5080856;28;20049;-76
2022/05/08 03:45:39;;;;;;;9.23;2.05;;;8.70;99.90;;;;;;5047676;28;20055;-74
2022/05/08 03:48:05;;;;;;;8.65;2.20;;;8.70;99.90;;;;;;5030162;28;20057;-75
2022/05/08 03:50:31;;;;;;;7.60;2.25;;;8.70;99.90;;;;;;5030640;28;20052;-76
2022/05/08 03:52:57;;;;;;;7.82;2.30;;;8.60;99.90;;;;;;5030839;28;20080;-75
2022/05/08 03:55:23;;;;;;;7.10;2.00;;;8.70;99.90;;;;;;5047455;28;20119;-75
2022/05/08 03:57:49;;;;;;;6.22;2.17;;;8.70;99.90;;;;;;5031598;28;20053;-75
2022/05/08 04:00:16;;;;;;;6.15;2.08;;;8.70;99.90;;;;;;5041860;28;20052;-75
2022/05/08 04:02:42;;;;;;;4.85;2.08;;;8.70;99.90;;;;;;5030408;28;20049;-75
2022/05/08 04:05:09;;;;;;;6.88;2.10;;;8.70;99.90;;;;;;5061507;28;20045;-75
2022/05/08 04:07:35;;;;;;;5.75;2.22;;;8.60;99.90;;;;;;5046992;28;20126;-75
2022/05/08 04:10:01;;;;;;;7.38;2.08;;;8.60;99.90;;;;;;5023293;28;20048;-75
2022/05/08 04:12:28;;;;;;;7.47;2.47;;;8.80;99.90;;;;;;5064978;28;20052;-75
2022/05/08 04:14:54;;;;;;;5.68;1.70;;;8.60;99.90;;;;;;5031769;28;20041;-75
2022/05/08 04:17:19;;;;;;;6.70;1.67;;;8.70;99.90;;;;;;5040521;28;20614;-76
2022/05/08 04:19:48;;;;;;;5.03;1.77;;;8.70;99.90;;;;;;5031475;28;20131;-75
2022/05/08 04:24:59;;;;;;;5.07;1.40;;;8.60;99.90;;;;;;5032456;28;20045;-76
2022/05/08 04:27:25;;;;;;;4.72;1.80;;;8.70;99.90;;;;;;5045641;28;20061;-75
2022/05/08 04:29:51;;;;;;;5.20;1.73;;;8.70;99.90;;;;;;5031414;28;20090;-76
2022/05/08 04:32:16;;;;;;;5.28;1.50;;;8.70;99.90;;;;;;5021836;28;20045;-74
2022/05/08 04:34:42;;;;;;;6.97;2.13;;;8.70;99.90;;;;;;5029589;28;20067;-74
2022/05/08 04:37:09;;;;;;;7.13;2.00;;;8.80;99.90;;;;;;5040383;28;20102;-75
2022/05/08 04:39:36;;;;;;;7.75;2.00;;;8.80;99.90;;;;;;5062291;28;20055;-75
2022/05/08 04:42:02;;;;;;;5.50;1.67;;;8.80;99.90;;;;;;5029630;28;20482;-75
2022/05/08 04:44:28;;;;;;;5.10;1.67;;;8.80;99.90;;;;;;5035890;28;20119;-77
2022/05/08 04:46:54;;;;;;;6.18;1.63;;;8.80;99.90;;;;;;5038380;28;20596;-76
2022/05/08 04:49:20;;;;;;;3.65;1.42;;;8.90;99.90;;;;;;5029980;28;20128;-76
2022/05/08 04:51:46;;;;;;;4.82;1.85;;;8.90;99.90;;;;;;5062430;28;20552;-75
2022/05/08 04:54:11;;;;;;;6.50;2.05;;;8.90;99.90;;;;;;5013237;28;20076;-75
2022/05/08 04:56:37;;;;;;;5.13;1.48;;;8.90;99.90;;;;;;5063509;28;20483;-75
2022/05/08 04:59:03;;;;;;;6.38;1.42;;;9.00;99.90;;;;;;5029792;28;20879;-72
2022/05/08 05:01:29;;;;;;;5.70;1.65;;;9.00;99.90;;;;;;5044187;28;20568;-77
2022/05/08 05:03:55;;;;;;;4.53;1.83;;;9.10;99.90;;;;;;5030727;28;20487;-76
2022/05/08 05:06:21;;;;;;;4.65;1.50;;;9.10;99.90;;;;;;5021969;28;20049;-75
2022/05/08 05:08:46;;;;;;;4.63;1.70;;;9.20;99.90;;;;;;5047211;28;20052;-75
2022/05/08 05:11:12;;;;;;;4.38;1.70;;;9.30;99.90;;;;;;5028453;28;20049;-75
2022/05/08 05:13:39;;;;;;;5.95;1.55;;;9.30;99.90;;;;;;5063106;28;20060;-76
2022/05/08 05:16:05;;;;;;;9.10;2.03;;;9.30;99.90;;;;;;5044459;28;20049;-75
2022/05/08 05:18:31;;;;;;;5.50;1.65;;;9.30;99.90;;;;;;5029062;28;20060;-76
2022/05/08 05:20:57;;;;;;;5.32;1.90;;;9.40;99.90;;;;;;5030480;28;20040;-76
2022/05/08 05:23:23;;;;;;;6.65;1.75;;;9.40;99.90;;;;;;5029850;28;20049;-75
2022/05/08 05:25:50;;;;;;;6.07;1.88;;;9.50;99.90;;;;;;5077895;28;20081;-76
2022/05/08 05:28:16;;;;;;;5.00;1.70;;;9.40;99.90;;;;;;5045652;28;20138;-71
2022/05/08 05:30:42;;;;;;;7.40;2.17;;;9.60;99.90;;;;;;5079549;28;20132;-75
2022/05/08 05:33:10;;;;;;;5.38;1.55;;;9.60;99.90;;;;;;5031163;28;20120;-75
2022/05/08 05:35:39;;;;;;;6.07;1.60;;;10.00;99.90;;;;;;5062882;28;20178;-75
2022/05/08 05:38:05;;;;;;;7.28;1.90;;;9.80;99.90;;;;;;5022520;28;20383;-75
2022/05/08 05:40:31;;;;;;;4.05;1.60;;;9.80;99.90;;;;;;5062309;28;20152;-75
2022/05/08 05:42:57;;;;;;;4.20;1.80;;;10.10;99.90;;;;;;5005224;28;20054;-75
2022/05/08 05:45:24;;;;;;;4.55;1.55;;;10.00;99.90;;;;;;5029393;28;20049;-76
2022/05/08 05:47:50;;;;;;;5.03;1.58;;;10.10;99.90;;;;;;5028522;28;20067;-75
2022/05/08 05:50:17;;;;;;;5.65;2.10;;;10.10;99.90;;;;;;5025227;28;20482;-77
2022/05/08 05:52:43;;;;;;;6.60;1.80;;;10.20;99.90;;;;;;5028913;28;20202;-75
2022/05/08 05:55:09;;;;;;;6.35;1.70;;;10.20;99.90;;;;;;5067660;28;20127;-75
2022/05/08 05:57:36;;;;;;;3.63;1.35;;;10.30;99.90;;;;;;5048177;28;20049;-75
2022/05/08 06:00:04;;;;;;;5.05;1.70;;;10.40;99.90;;;;;;5029012;28;20066;-76
2022/05/08 06:02:29;;;;;;;5.43;1.60;;;10.40;99.90;;;;;;5063409;28;20040;-77
2022/05/08 06:04:55;;;;;;;5.22;1.70;;;10.50;99.90;;;;;;5047687;28;20037;-77
2022/05/08 06:07:21;;;;;;;6.88;1.52;;;10.50;99.90;;;;;;5043724;28;20090;-77
2022/05/08 06:09:47;;;;;;;5.38;1.58;;;10.40;99.90;;;;;;5028232;28;20482;-77
2022/05/08 06:12:12;;;;;;;3.90;1.73;;;10.70;99.90;;;;;;5029216;28;20482;-77
2022/05/08 06:14:38;;;;;;;6.07;1.50;;;10.70;99.90;;;;;;5032538;28;20072;-77
2022/05/08 06:17:04;;;;;;;4.90;1.50;;;10.80;99.90;;;;;;5030094;28;20056;-76
2022/05/08 06:19:31;;;;;;;2.58;1.30;;;10.80;99.90;;;;;;5032175;28;20164;-75
2022/05/08 06:21:57;;;;;;;5.03;1.55;;;10.80;99.90;;;;;;5081658;28;20045;-76
2022/05/08 06:24:23;;;;;;;6.00;1.60;;;10.80;99.90;;;;;;5064761;28;20049;-77
2022/05/08 06:26:49;;;;;;;4.50;1.30;;;10.10;99.90;;;;;;5048324;28;20398;-75
2022/05/08 06:29:15;;;;;;;5.07;1.55;;;10.80;99.90;;;;;;5044967;28;20056;-75
2022/05/08 06:31:41;;;;;;;5.07;1.52;;;10.80;99.90;;;;;;5059917;28;20045;-76
2022/05/08 06:34:08;;;;;;;4.57;1.45;;;10.90;99.90;;;;;;5025598;28;20045;-76
2022/05/08 06:36:34;;;;;;;8.02;1.65;;;10.90;99.90;;;;;;5023598;28;20069;-78
2022/05/08 06:39:00;;;;;;;3.40;1.20;;;10.90;99.90;;;;;;5025657;28;20138;-77
2022/05/08 06:41:27;;;;;;;3.72;1.40;;;11.00;99.90;;;;;;5027869;28;20040;-78
2022/05/08 06:43:53;;;;;;;5.93;1.70;;;11.20;99.90;;;;;;5047250;28;20383;-76
2022/05/08 06:46:19;;;;;;;4.38;1.48;;;11.20;99.90;;;;;;5059884;28;20136;-76
2022/05/08 06:48:47;;;;;;;4.50;1.35;;;11.40;99.90;;;;;;5029201;28;20206;-74
2022/05/08 06:51:13;;;;;;;4.22;1.33;;;11.40;99.90;;;;;;5062887;28;20139;-73
2022/05/08 06:53:40;;;;;;;3.97;1.17;;;11.50;99.90;;;;;;5044842;28;20045;-76
2022/05/08 06:56:06;;;;;;;5.15;1.70;;;11.70;99.90;;;;;;5028825;28;20059;-78
2022/05/08 07:01:34;;;;;;;7.30;1.55;;;11.90;99.90;;;;;;5041713;28;20041;-76
2022/05/08 07:01:36;;;;;;;3.80;1.60;;;11.90;99.90;;;;;;5055184;28;20053;-76
2022/05/08 07:04:03;;;;;;;4.32;1.42;;;12.00;99.90;;;;;;5060692;28;20306;-73
2022/05/08 07:06:29;;;;;;;5.07;1.35;;;12.00;99.90;;;;;;5006106;28;20136;-77
2022/05/08 07:08:56;;;;;;;5.85;1.70;;;12.10;99.90;;;;;;5058459;28;20053;-77
2022/05/08 07:11:21;;;;;;;4.90;1.38;;;12.10;99.90;;;;;;5025979;28;20056;-76
2022/05/08 07:13:48;;;;;;;5.72;1.50;;;12.10;99.90;;;;;;5005776;28;20778;-76
2022/05/08 07:16:14;;;;;;;3.95;1.40;;;12.10;99.90;;;;;;5006365;28;20041;-76
2022/05/08 07:18:39;;;;;;;4.50;1.50;;;12.00;99.90;;;;;;5022391;28;20444;-73
2022/05/08 07:21:05;;;;;;;3.55;1.45;;;12.00;99.90;;;;;;5029395;28;20057;-72
2022/05/08 07:23:34;;;;;;;5.88;1.30;;;12.00;99.90;;;;;;5075037;28;20041;-76
2022/05/08 07:26:00;;;;;;;6.32;1.65;;;12.00;99.90;;;;;;5042904;28;20133;-75
2022/05/08 07:28:27;;;;;;;4.53;1.52;;;12.10;99.90;;;;;;5025532;28;20117;-74
2022/05/08 07:30:54;;;;;;;5.68;1.50;;;12.30;99.90;;;;;;5042159;28;20041;-77
2022/05/08 07:33:20;;;;;;;5.13;1.40;;;12.40;99.90;;;;;;5025872;28;20175;-76
2022/05/08 07:38:31;;;;;;;5.60;1.52;;;12.70;99.90;;;;;;5073456;28;20045;-76
2022/05/08 07:40:57;;;;;;;3.33;1.25;;;12.80;99.90;;;;;;5028071;28;20123;-77
2022/05/08 07:43:23;;;;;;;4.40;1.60;;;12.80;99.90;;;;;;5060123;28;20045;-76
2022/05/08 07:45:49;;;;;;;6.63;1.52;;;12.90;99.90;;;;;;5041413;28;20045;-75
2022/05/08 07:48:18;;;;;;;3.78;1.52;;;13.00;99.90;;;;;;5061548;28;20037;-75
2022/05/08 07:50:45;;;;;;;6.75;1.50;;;12.90;99.90;;;;;;5023530;28;20470;-77
2022/05/08 07:53:12;;;;;;;6.75;1.58;;;12.90;99.90;;;;;;5043872;28;20116;-75
2022/05/08 07:55:39;;;;;;;4.50;1.48;;;12.90;99.90;;;;;;5022675;28;20044;-75
2022/05/08 07:58:04;;;;;;;7.35;2.08;;;12.90;99.90;;;;;;5005939;28;20091;-75
2022/05/08 08:00:30;;;;;;;7.25;1.52;;;12.90;99.90;;;;;;5006052;28;20045;-77
2022/05/08 08:02:56;;;;;;;6.65;1.58;;;13.00;99.90;;;;;;5027152;28;20044;-76
2022/05/08 08:05:23;;;;;;;4.30;1.52;;;13.10;99.90;;;;;;5064820;28;20049;-75
2022/05/08 08:07:49;;;;;;;7.50;1.60;;;13.40;99.90;;;;;;5044931;28;20068;-76
2022/05/08 08:10:15;;;;;;;7.20;1.52;;;13.80;99.90;;;;;;5063680;28;20055;-76
2022/05/08 08:12:41;;;;;;;7.45;1.75;;;14.00;99.90;;;;;;5046070;28;20049;-76
2022/05/08 08:15:08;;;;;;;7.03;1.48;;;14.10;99.90;;;;;;5025969;28;20069;-76
2022/05/08 08:17:34;;;;;;;5.30;1.40;;;14.20;99.90;;;;;;5046228;28;20107;-78
2022/05/08 08:19:59;;;;;;;3.80;1.45;;;14.30;99.90;;;;;;5007207;28;20510;-81
2022/05/08 08:22:25;;;;;;;5.70;1.60;;;14.20;99.90;;;;;;5023817;28;20041;-77
2022/05/08 08:24:51;;;;;;;4.88;1.50;;;14.30;99.90;;;;;;5062945;28;20447;-77
2022/05/08 08:27:18;;;;;;;5.20;1.52;;;14.30;99.90;;;;;;5061756;28;20095;-77
2022/05/08 08:29:46;;;;;;;7.32;1.50;;;14.30;99.90;;;;;;5049448;28;20052;-77
2022/05/08 08:32:12;;;;;;;5.35;1.60;;;14.50;99.90;;;;;;5081341;28;20048;-77
2022/05/08 08:34:37;;;;;;;3.90;1.45;;;14.60;99.90;;;;;;5032601;28;20098;-78
2022/05/08 08:37:03;;;;;;;4.72;1.55;;;14.60;99.90;;;;;;5015836;28;20049;-77
2022/05/08 08:39:30;;;;;;;5.88;1.23;;;14.60;99.90;;;;;;5009227;28;20088;-77
2022/05/08 08:42:13;;;;;;;7.25;1.60;;;14.70;99.90;;;;;;5079835;28;20127;-77
2022/05/08 08:47:44;;;;;;;4.40;1.50;;;15.00;99.90;;;;;;5075120;28;20046;-77
2022/05/08 08:50:11;;;;;;;5.82;1.20;;;15.40;99.90;;;;;;5021973;28;20414;-77
2022/05/08 08:52:37;;;;;;;7.40;1.40;;;15.70;99.90;;;;;;5021019;28;20053;-79
2022/05/08 08:55:07;;;;;;;5.38;1.48;;;16.00;99.90;;;;;;5042496;28;20071;-77
2022/05/08 08:57:33;;;;;;;4.38;1.20;;;16.30;99.90;;;;;;5039815;28;20048;-79
2022/05/08 08:59:58;;;;;;;5.85;1.73;;;16.50;99.90;;;;;;5040360;28;20106;-77
2022/05/08 09:02:24;;;;;;;11.82;1.70;;;16.60;99.90;;;;;;5022510;28;20486;-79
2022/05/08 09:04:50;;;;;;;13.93;2.10;;;16.80;99.90;;;;;;5055705;28;20037;-77
2022/05/08 09:07:34;;;;;;;6.93;1.90;;;17.00;99.90;;;;;;5040167;28;20837;-77
2022/05/08 09:10:23;;;;;;;4.35;1.40;;;17.30;99.20;;;;;;5071873;28;20132;-77
2022/05/08 09:12:52;;;;;;;6.75;1.30;;;17.60;99.10;;;;;;5036635;28;21795;-80
2022/05/08 09:15:22;;;;;;;5.80;1.70;;;17.80;99.20;;;;;;5028356;28;20051;-78
2022/05/08 09:17:51;;;;;;;6.40;1.38;;;18.00;98.80;;;;;;5020332;28;20052;-78
2022/05/08 09:20:30;;;;;;;3.70;1.23;;;18.20;98.60;;;;;;5030763;28;20041;-79
2022/05/08 09:23:15;;;;;;;4.55;1.92;;;18.30;97.70;;;;;;5062545;28;20057;-78
2022/05/08 09:25:44;;;;;;;3.05;1.42;;;18.10;96.70;;;;;;5056654;28;20098;-78
2022/05/08 09:28:14;;;;;;;3.40;1.48;;;17.90;97.80;;;;;;5054608;28;20065;-78
2022/05/08 09:31:00;;;;;;;5.28;1.50;;;18.10;97.40;;;;;;5058492;28;20091;-80
2022/05/08 09:33:30;;;;;;;5.70;1.38;;;18.30;96.10;;;;;;5042533;28;20383;-79
2022/05/08 09:35:57;;;;;;;4.43;1.45;;;18.30;96.10;;;;;;5075441;28;20076;-79
2022/05/08 09:38:38;;;;;;;5.28;1.35;;;18.50;95.90;;;;;;5008212;28;20060;-78
2022/05/08 09:41:05;;;;;;;3.20;1.20;;;18.60;95.70;;;;;;5040241;28;20498;-76
2022/05/08 09:43:32;;;;;;;5.10;1.38;;;18.90;95.30;;;;;;5010192;28;20530;-77
2022/05/08 09:46:03;;;;;;;5.82;1.58;;;19.20;95.20;;;;;;5044829;28;20341;-76
2022/05/08 09:48:31;;;;;;;3.45;1.30;;;19.50;94.20;;;;;;5078256;28;20581;-76
2022/05/08 09:51:03;;;;;;;4.53;1.30;;;19.60;93.50;;;;;;5041907;28;20041;-77
2022/05/08 09:53:29;;;;;;;4.28;1.40;;;20.00;93.50;;;;;;5063232;28;20049;-76
2022/05/08 09:55:56;;;;;;;4.78;1.33;;;20.20;93.30;;;;;;5029469;28;20071;-77
2022/05/08 09:58:22;;;;;;;6.03;1.50;;;20.50;92.70;;;;;;5045017;28;20547;-77
2022/05/08 10:00:49;;;;;;;3.88;1.30;;;20.40;92.00;;;;;;5025200;28;20037;-78
2022/05/08 10:03:15;;;;;;;5.28;1.67;;;20.50;91.30;;;;;;5007764;28;20099;-76
2022/05/08 10:05:45;;;;;;;5.13;1.70;;;20.50;91.10;;;;;;5019782;28;20987;-77
2022/05/08 10:08:16;;;;;;;6.68;1.50;;;20.60;90.30;;;;;;5041890;28;20062;-76
2022/05/08 10:14:05;;;;;;;4.43;1.20;;;20.70;90.10;;;;;;5043589;28;20061;-76
2022/05/08 10:16:45;;;;;;;5.82;1.60;;;20.80;85.40;;;;;;5038891;28;20079;-76
2022/05/08 10:19:20;;;;;;;6.72;1.80;;;20.80;82.30;;;;;;5038680;28;20056;-77
2022/05/08 10:24:34;;;;;;;4.10;1.30;;;20.80;85.50;;;;;;5072335;28;20308;-77
2022/05/08 10:27:16;;;;;;;4.93;1.55;;;21.00;86.20;;;;;;5042287;28;20166;-78
2022/05/08 10:29:54;;;;;;;4.55;1.27;;;21.30;81.90;;;;;;5023100;28;20037;-80
2022/05/08 10:32:35;;;;;;;4.93;1.52;;;21.40;80.80;;;;;;5024689;28;20041;-78
2022/05/08 10:35:18;;;;;;;5.13;1.23;;;21.60;81.70;;;;;;5023326;28;20427;-78
2022/05/08 10:38:04;;;;;;;4.50;1.48;;;21.80;80.20;;;;;;5077982;28;20056;-80
2022/05/08 10:40:33;;;;;;;3.72;1.33;;;21.80;81.90;;;;;;5013510;28;20041;-77
2022/05/08 10:43:01;;;;;;;4.85;1.20;;;21.90;80.60;;;;;;5043009;28;20520;-78
2022/05/08 10:45:33;;;;;;;4.18;1.45;;;21.80;79.20;;;;;;5031326;28;20048;-78
2022/05/08 10:48:09;;;;;;;4.18;1.30;;;21.90;78.50;;;;;;5082854;28;20060;-78
2022/05/08 10:50:37;;;;;;;5.22;1.60;;;22.10;79.50;;;;;;5044826;28;20053;-77
2022/05/08 10:53:03;;;;;;;6.43;1.67;;;22.00;76.00;;;;;;5027988;28;20048;-77
2022/05/08 10:55:29;;;;;;;5.15;1.30;;;22.00;78.10;;;;;;5048819;28;20053;-78
2022/05/08 10:57:58;;;;;;;4.22;1.55;;;22.10;78.60;;;;;;5024193;28;20106;-78
2022/05/08 11:00:24;;;;;;;6.13;1.38;;;22.30;77.10;;;;;;5045015;28;20079;-79
2022/05/08 11:02:52;;;;;;;3.88;1.35;;;22.50;77.70;;;;;;5029096;28;20556;-78
2022/05/08 11:05:29;;;;;;;5.60;1.40;;;22.40;76.40;;;;;;5025574;28;20199;-77
2022/05/08 11:08:02;;;;;;;5.95;1.50;;;22.50;74.70;;;;;;5024302;28;21287;-78
2022/05/08 11:10:33;;;;;;;6.45;1.63;;;22.70;74.40;;;;;;5039952;28;20049;-76
2022/05/08 11:12:59;;;;;;;5.85;1.35;;;22.70;73.70;;;;;;5044478;28;20503;-78
2022/05/08 11:15:34;;;;;;;3.83;1.48;;;22.60;74.70;;;;;;5075797;28;20565;-76
2022/05/08 11:18:07;;;;;;;3.85;1.30;;;22.60;70.30;;;;;;5046119;28;20106;-76
2022/05/08 11:20:37;;;;;;;3.97;1.10;;;22.70;73.50;;;;;;5064162;28;20045;-76
2022/05/08 11:23:07;;;;;;;4.65;1.42;;;22.70;74.20;;;;;;5029610;28;20041;-75
2022/05/08 11:25:33;;;;;;;4.78;1.40;;;22.70;73.30;;;;;;5080067;28;20510;-76
2022/05/08 11:28:00;;;;;;;4.43;1.30;;;22.80;72.90;;;;;;5045354;28;20045;-76
2022/05/08 11:30:36;;;;;;;4.32;1.27;;;22.90;72.70;;;;;;5041683;28;20164;-76
2022/05/08 11:36:04;;;;;;;3.78;1.05;;;23.00;71.70;;;;;;5044777;28;20061;-76
2022/05/08 11:38:39;;;;;;;3.95;1.40;;;23.10;72.10;;;;;;5046062;28;20137;-75
2022/05/08 11:41:08;;;;;;;4.68;1.00;;;23.20;71.10;;;;;;5043850;28;20064;-76
2022/05/08 11:43:45;;;;;;;5.20;1.63;;;23.20;71.00;;;;;;5045099;28;20047;-76
2022/05/08 11:46:15;;;;;;;5.57;1.52;;;23.30;68.70;;;;;;5062539;28;20611;-75
2022/05/08 11:48:43;;;;;;;4.40;1.25;;;23.40;68.50;;;;;;5062012;28;20048;-76
2022/05/08 11:51:14;;;;;;;5.65;1.40;;;23.40;68.00;;;;;;5044076;28;20048;-75
2022/05/08 11:53:51;;;;;;;4.38;1.30;;;23.40;67.80;;;;;;5061252;28;20075;-77
2022/05/08 11:56:29;;;;;;;5.65;1.35;;;23.40;67.50;;;;;;5062430;28;20076;-76
2022/05/08 11:59:00;;;;;;;7.10;1.52;;;23.30;66.20;;;;;;5027371;28;20088;-75
2022/05/08 12:01:31;;;;;;;4.10;1.30;;;23.40;68.40;;;;;;5041117;28;20045;-76
2022/05/08 12:04:18;;;;;;;4.47;1.20;;;23.60;67.40;;;;;;5077725;28;20074;-77
2022/05/08 12:07:00;;;;;;;7.10;1.73;;;23.60;67.20;;;;;;5021532;28;20467;-77
2022/05/08 12:09:34;;;;;;;4.82;1.42;;;23.70;66.30;;;;;;5059481;28;20132;-76
2022/05/08 12:12:23;;;;;;;4.00;1.42;;;23.80;66.70;;;;;;5040682;28;20107;-76
2022/05/08 12:14:50;;;;;;;5.18;1.83;;;23.80;63.30;;;;;;5020567;28;20038;-78
2022/05/08 12:17:16;;;;;;;3.70;1.50;;;23.80;65.60;;;;;;5059278;28;20148;-76
2022/05/08 12:19:56;;;;;;;4.55;1.33;;;23.90;65.70;;;;;;5060078;28;20048;-76
2022/05/08 12:22:26;;;;;;;5.60;1.40;;;23.90;63.30;;;;;;5060110;28;20107;-76
2022/05/08 12:25:00;;;;;;;6.00;1.67;;;23.90;65.20;;;;;;5041471;28;20049;-76
2022/05/08 12:27:26;;;;;;;5.95;1.60;;;24.00;63.90;;;;;;5059483;28;20061;-79
2022/05/08 12:29:53;;;;;;;3.78;1.30;;;24.00;65.20;;;;;;5041877;28;20044;-77
2022/05/08 12:32:20;;;;;;;4.10;1.42;;;24.20;64.90;;;;;;5026955;28;22311;-77
2022/05/08 12:34:47;;;;;;;4.95;1.60;;;24.00;65.00;;;;;;5023515;28;20041;-77
2022/05/08 12:37:15;;;;;;;4.22;1.38;;;24.00;65.40;;;;;;5037132;28;20102;-78
2022/05/08 12:39:42;;;;;;;4.78;1.40;;;24.10;65.00;;;;;;5060749;28;20403;-78
2022/05/08 12:42:10;;;;;;;3.83;1.35;;;24.10;64.50;;;;;;5059439;28;20056;-77
2022/05/08 12:44:36;;;;;;;5.35;1.50;;;24.00;64.60;;;;;;5023352;28;20076;-78
2022/05/08 12:47:07;;;;;;;4.68;1.33;;;24.20;64.00;;;;;;5059533;28;20057;-77
2022/05/08 12:49:34;;;;;;;5.72;1.50;;;24.30;64.50;;;;;;5025014;28;20041;-78
2022/05/08 12:52:01;;;;;;;4.40;1.48;;;24.30;63.70;;;;;;5042551;28;20524;-77
2022/05/08 12:54:27;;;;;;;5.53;1.77;;;24.30;64.10;;;;;;5042922;28;20374;-76
2022/05/08 12:56:53;;;;;;;5.18;1.30;;;24.30;63.10;;;;;;5040270;28;20048;-78
2022/05/08 13:02:03;;;;;;;5.95;1.50;;;24.30;63.30;;;;;;5043492;28;20418;-77
2022/05/08 13:04:29;;;;;;;5.15;1.58;;;24.20;62.80;;;;;;5008822;28;20036;-76
2022/05/08 13:06:55;;;;;;;5.22;1.60;;;24.40;62.60;;;;;;5039749;28;20040;-78
2022/05/08 13:09:20;;;;;;;9.73;1.73;;;24.40;62.90;;;;;;5041425;28;20479;-79
2022/05/08 13:11:48;;;;;;;8.60;1.73;;;24.40;61.80;;;;;;5043260;28;20029;-77
2022/05/08 13:14:14;;;;;;;4.80;1.55;;;24.20;62.00;;;;;;5020424;28;20040;-78
2022/05/08 13:16:40;;;;;;;6.63;1.60;;;24.10;62.90;;;;;;5043888;28;20071;-76
2022/05/08 13:19:06;;;;;;;3.67;1.30;;;24.10;62.90;;;;;;5025688;28;20049;-78
2022/05/08 13:21:32;;;;;;;7.03;1.52;;;24.20;63.10;;;;;;5043264;28;20041;-76